Latest Weather Observations for Alice Springs Airport

IDD60801

Issued at 4:31 pm CST Friday 19 December 2014 (issued every 30 minutes, with the page automatically refreshed every 10 minutes)

About weather observations | Map of weather stations | Latest weather observations for NT | Other Formats
Station Details ID: 015590 Name: ALICE SPRINGS AIRPORT Lat: -23.80 Lon: 133.89 Height: 546.0 m
Data from the previous 72 hours. | See also: Recent months at Alice Springs Airport
Date/Time
CST
Temp
°C
App
Temp
°C
Dew
Point
Rel
Hum
%
Delta-T
°C
Wind Press
QNH
hPa
Press
MSL
hPa
Rain
since 9 am
mm
Dir
 
Spd
km/h
Gust
km/h
Spd
kts
Gust
kts
19/04:00pm 33.4 30.9 9.6 23 13.9 E 13 19 7 10 1014.2 1010.3 0.0
19/03:30pm 33.7 30.3 9.3 22 14.2 NE 17 30 9 16 1014.6 1010.7 0.0
19/03:00pm 33.6 30.6 9.4 22 14.1 ESE 15 28 8 15 1015.0 1011.2 0.0
19/02:30pm 33.8 30.0 9.7 22 14.1 ENE 20 28 11 15 1015.5 1011.7 0.0
19/02:00pm 33.3 30.5 9.9 23 13.7 ENE 15 20 8 11 1015.7 1011.9 0.0
19/01:30pm 33.8 29.8 8.9 21 14.4 ESE 20 35 11 19 1016.1 1012.2 0.0
19/01:00pm 32.9 28.5 10.3 25 13.3 ESE 24 35 13 19 1016.3 1012.4 0.0
19/12:30pm 33.2 29.9 11.0 25 13.2 E 19 32 10 17 1016.8 1013.0 0.0
19/12:00pm 32.1 28.8 12.7 30 11.8 E 22 33 12 18 1017.2 1013.4 0.0
19/11:30am 31.8 28.9 12.9 31 11.5 ENE 20 35 11 19 1017.3 1013.5 0.0
19/11:00am 31.3 28.4 14.0 35 10.7 E 22 33 12 18 1017.6 1013.8 0.0
19/10:30am 30.9 28.5 13.8 35 10.5 E 19 33 10 18 1017.7 1013.9 0.0
19/10:00am 29.8 26.7 14.4 39 9.5 E 24 32 13 17 1018.0 1014.1 0.0
19/09:30am 29.0 27.9 15.2 43 8.6 ENE 15 24 8 13 1018.1 1014.3 0.0
19/08:30am 27.2 26.8 17.2 54 6.4 ENE 15 20 8 11 1018.2 1014.4 0.2
19/07:30am 25.8 27.8 19.2 67 4.3 E 7 11 4 6 1017.4 1013.6 0.2
19/07:00am 24.4 28.3 20.3 78 2.7 CALM 0 0 0 0 1017.1 1013.3 0.2
19/05:30am 21.1 24.9 20.2 95 0.6 CALM 0 0 0 0 1015.6 1011.8 0.2
19/05:00am 21.1 24.8 19.9 93 0.8 CALM 0 0 0 0 1015.3 1011.5 0.2
19/04:30am 21.3 25.1 20.1 93 0.8 CALM 0 0 0 0 1015.0 1011.2 0.2
19/04:00am 21.6 24.4 20.4 93 0.8 SSE 6 7 3 4 1014.7 1010.8 0.2
19/03:30am 21.9 25.2 19.9 88 1.3 E 2 7 1 4 1014.6 1010.7 0.2
19/03:00am 22.2 24.5 19.8 86 1.6 E 7 9 4 5 1014.6 1010.7 0.2
19/02:30am 22.7 25.3 20.4 87 1.5 SE 7 9 4 5 1014.5 1010.6 0.2
19/02:00am 23.2 25.6 20.0 82 2.1 ESE 7 9 4 5 1014.4 1010.5 0.2
19/01:30am 23.6 25.8 19.6 78 2.6 E 7 11 4 6 1014.5 1010.6 0.2
19/01:00am 23.7 26.0 19.9 79 2.5 ESE 7 9 4 5 1014.7 1010.8 0.2
19/12:30am 24.1 26.5 20.0 78 2.7 E 7 9 4 5 1014.9 1011.1 0.2
19/12:00am 24.6 26.3 19.4 73 3.4 E 9 11 5 6 1015.1 1011.3 0.2
 
Date/Time
CST
Temp
°C
App
Temp
°C
Dew
Point
Rel
Hum
%
Delta-T
°C
Wind Press
QNH
hPa
Press
MSL
hPa
Rain
since 9 am
mm
Dir
 
Spd
km/h
Gust
km/h
Spd
kts
Gust
kts
18/11:30pm 25.3 26.0 18.9 67 4.2 E 13 15 7 8 1015.2 1011.4 0.2
18/11:00pm 25.9 25.7 18.5 63 4.8 E 17 20 9 11 1014.9 1011.1 0.2
18/10:30pm 26.4 26.1 18.2 60 5.3 ENE 17 26 9 14 1014.8 1011.0 0.2
18/10:00pm 26.9 26.5 18.1 58 5.7 ENE 17 22 9 12 1014.5 1010.6 0.2
18/09:30pm 27.6 27.5 17.9 55 6.3 ENE 15 17 8 9 1014.1 1010.2 0.2
18/09:00pm 28.0 28.3 17.8 54 6.6 ENE 13 15 7 8 1013.7 1009.9 0.2
18/08:30pm 28.2 28.5 18.0 54 6.6 ENE 13 15 7 8 1013.4 1009.6 0.2
18/08:00pm 29.3 28.8 16.0 44 8.4 ESE 13 15 7 8 1013.3 1009.5 0.2
18/07:30pm 29.9 29.1 16.2 43 8.7 SE 15 22 8 12 1013.1 1009.3 0.2
18/07:00pm 30.6 29.3 15.8 40 9.4 SE 17 24 9 13 1012.8 1008.9 0.2
18/06:30pm 31.2 29.2 15.4 38 10.0 ESE 20 26 11 14 1012.3 1008.4 0.2
18/06:00pm 31.5 29.7 15.6 38 10.1 ESE 19 28 10 15 1012.1 1008.2 0.2
18/05:30pm 31.2 29.5 15.8 39 9.8 E 19 26 10 14 1011.8 1008.0 0.2
18/05:00pm 31.9 30.9 16.5 39 9.9 ESE 17 28 9 15 1011.8 1008.0 0.2
18/04:30pm 31.5 30.8 16.4 40 9.7 E 15 28 8 15 1011.8 1008.0 0.2
18/04:00pm 31.7 31.2 16.8 40 9.6 ESE 15 26 8 14 1012.1 1008.2 0.2
18/03:30pm 32.1 32.7 16.8 40 9.9 SSE 9 20 5 11 1012.3 1008.4 0.2
18/03:00pm 31.5 31.4 17.0 41 9.4 E 13 26 7 14 1012.7 1008.8 0.2
18/02:30pm 31.0 31.1 17.5 44 8.8 S 13 22 7 12 1013.0 1009.1 0.2
18/02:00pm 31.3 31.6 16.1 40 9.7 SE 9 15 5 8 1013.4 1009.6 0.2
18/01:30pm 30.5 32.0 18.1 47 8.1 WSW 7 15 4 8 1013.6 1009.8 0.2
18/01:00pm 29.8 29.9 18.4 50 7.5 NE 15 26 8 14 1013.7 1009.9 0.2
18/12:30pm 28.9 30.0 18.9 54 6.6 NE 11 22 6 12 1014.0 1010.1 0.2
18/12:00pm 28.3 28.6 18.7 56 6.3 ENE 15 28 8 15 1014.6 1010.7 0.2
18/11:30am 27.8 27.9 18.3 56 6.2 ENE 15 26 8 14 1014.8 1011.0 0.2
18/11:00am 26.0 26.2 17.7 60 5.3 ENE 13 20 7 11 1015.0 1011.2 0.2
18/10:30am 25.5 25.4 17.9 63 4.9 ENE 15 22 8 12 1014.8 1011.0 0.0
18/10:00am 26.0 25.3 18.6 63 4.8 NNE 20 32 11 17 1014.0 1010.1 0.0
18/09:30am 23.9 21.4 18.1 70 3.7 NE 28 37 15 20 1014.1 1010.2 0.0
18/09:00am 22.8 22.8 18.9 78 2.5 NE 17 28 9 15 1014.8 1011.0 9.6
18/08:30am 21.7 22.7 19.5 87 1.4 E 13 19 7 10 1015.5 1011.7 9.6
18/08:00am 21.1 22.1 19.4 90 1.1 E 13 17 7 9 1016.1 1012.2 9.6
18/07:30am 20.4 21.4 19.5 95 0.6 ESE 13 17 7 9 1016.1 1012.2 9.6
18/07:29am 20.4 21.4 19.5 95 0.6 ESE 13 17 7 9 1016.1 1012.2 9.6
18/07:00am 20.4 21.5 19.6 95 0.5 SE 13 19 7 10 1015.4 1011.6 9.4
18/06:30am 20.6 21.2 19.4 93 0.8 SSE 15 20 8 11 1015.6 1011.8 9.2
18/06:00am 21.4 23.7 19.9 91 1.0 ESE 7 11 4 6 1015.1 1011.3 8.8
18/05:30am 21.4 23.4 19.9 91 1.0 SSE 9 11 5 6 1014.6 1010.7 8.4
18/05:00am 21.6 23.2 19.9 90 1.1 SE 11 17 6 9 1014.1 1010.2 8.4
18/04:30am 21.5 23.2 20.1 92 0.9 S 11 13 6 7 1013.7 1009.9 8.4
18/04:00am 21.4 21.8 19.9 91 1.0 SSE 17 20 9 11 1012.9 1009.0 8.4
18/03:30am 21.4 22.7 20.2 93 0.8 SSE 13 19 7 10 1013.3 1009.5 8.2
18/03:15am 21.3 20.7 19.8 91 1.0 S 22 32 12 17 1013.2 1009.4 8.0
18/03:00am 21.0 19.0 18.3 84 1.7 SSE 26 35 14 19 1012.9 1009.0 7.4
18/02:54am 20.9 19.0 18.6 87 1.5 SSW 26 35 14 19 1012.5 1008.6 6.0
18/02:45am 21.9 20.0 18.6 81 2.1 S 26 35 14 19 1012.4 1008.5 4.4
18/02:30am 23.7 21.3 17.4 68 4.0 SSE 26 32 14 17 1010.3 1006.4 4.0
18/02:00am 23.4 23.8 18.1 72 3.4 E 13 19 7 10 1009.5 1005.6 4.0
18/01:58am 23.3 23.6 18.0 72 3.4 E 13 19 7 10 1009.3 1005.4 4.0
18/01:45am 24.6 24.3 16.5 60 5.1 WSW 13 20 7 11 1009.5 1005.6 3.8
18/01:30am 26.3 26.3 15.2 50 6.9 NE 9 15 5 8 1009.3 1005.4 2.6
18/01:00am 27.0 26.7 15.5 49 7.2 E 11 15 6 8 1008.9 1005.0 2.4
18/12:30am 27.3 32.2 22.4 74 3.4 CALM 0 0 0 0 1009.3 1005.4 2.2
18/12:00am 27.7 29.5 18.4 57 6.1 ENE 6 9 3 5 1009.3 1005.4 2.2
 
Date/Time
CST
Temp
°C
App
Temp
°C
Dew
Point
Rel
Hum
%
Delta-T
°C
Wind Press
QNH
hPa
Press
MSL
hPa
Rain
since 9 am
mm
Dir
 
Spd
km/h
Gust
km/h
Spd
kts
Gust
kts
17/11:30pm 27.3 29.4 20.1 64 4.8 ESE 9 11 5 6 1009.2 1005.3 2.2
17/11:00pm 28.2 28.4 15.8 47 7.8 E 9 9 5 5 1009.1 1005.2 2.2
17/10:30pm 28.7 27.7 14.5 42 8.8 ESE 13 15 7 8 1008.7 1004.8 2.2
17/10:00pm 28.6 28.2 15.2 44 8.4 E 11 15 6 8 1008.8 1004.9 2.2
17/09:30pm 28.2 29.2 17.7 53 6.8 E 9 11 5 6 1008.3 1004.4 2.2
17/09:00pm 28.1 29.2 18.8 57 6.1 SE 11 13 6 7 1007.8 1003.9 2.2
17/08:30pm 28.4 30.2 19.5 58 5.9 SE 9 11 5 6 1007.6 1003.7 2.2
17/08:00pm 29.1 29.7 17.7 50 7.4 ESE 11 13 6 7 1007.2 1003.3 2.2
17/07:30pm 29.0 30.8 20.4 59 5.8 ESE 11 15 6 8 1007.2 1003.3 2.2
17/07:00pm 29.4 30.4 18.6 52 7.1 ESE 11 15 6 8 1007.1 1003.2 2.2
17/06:30pm 28.8 29.6 19.8 58 6.0 ESE 15 22 8 12 1006.8 1002.9 2.2
17/06:00pm 29.9 29.4 18.7 51 7.4 W 19 33 10 18 1006.4 1002.4 2.2
17/05:46pm 30.1 29.6 16.9 45 8.5 WNW 15 32 8 17 1006.8 1002.9 2.2
17/05:36pm 29.0 25.6 17.8 50 7.3 NNW 32 54 17 29 1007.4 1003.5 1.8
17/05:31pm 28.0 26.6 18.9 57 6.0 NNW 24 52 13 28 1007.5 1003.6 1.0
17/05:30pm 28.5 27.3 18.4 54 6.6 NNW 22 41 12 22 1007.4 1003.5 0.8
17/05:26pm 31.6 30.9 17.3 42 9.3 NNW 17 37 9 20 1007.0 1003.1 0.4
17/05:00pm 36.8 36.3 12.1 22 15.2 SE 6 13 3 7 1006.0 1002.1 0.0
17/04:30pm 37.7 36.9 11.1 20 16.2 NNW 6 15 3 8 1006.3 1002.3 0.0
17/04:00pm 36.5 35.8 11.3 22 15.3 SSE 6 9 3 5 1006.6 1002.7 0.0
17/03:30pm 37.2 36.3 11.5 21 15.7 NNW 7 9 4 5 1007.1 1003.2 0.0
17/03:00pm 34.9 35.1 17.6 35 11.4 NE 13 24 7 13 1007.7 1003.8 0.0
17/02:30pm 36.1 34.1 11.4 22 15.0 ENE 13 19 7 10 1008.0 1004.1 0.0
17/02:00pm 34.7 33.5 11.6 24 14.0 NE 9 22 5 12 1008.5 1004.6 0.0
17/01:30pm 35.1 35.0 12.0 24 14.1 ENE 4 9 2 5 1008.9 1005.0 0.0
17/01:00pm 34.0 33.0 12.4 27 13.2 SSW 9 17 5 9 1009.6 1005.7 0.0
17/12:30pm 34.6 33.4 11.7 25 13.9 SSW 9 13 5 7 1009.9 1006.1 0.0
17/12:00pm 34.3 34.0 12.6 27 13.3 ENE 6 11 3 6 1010.3 1006.4 0.0
17/11:30am 34.5 33.4 12.0 25 13.7 ESE 9 17 5 9 1010.7 1006.8 0.0
17/11:00am 33.2 31.5 12.3 28 12.7 S 13 22 7 12 1011.2 1007.3 0.0
17/10:30am 32.4 30.7 12.5 29 12.1 S 13 17 7 9 1011.3 1007.4 0.0
17/10:00am 32.0 32.0 13.7 33 11.3 N 6 11 3 6 1011.3 1007.4 0.0
17/09:30am 30.9 30.4 13.9 35 10.5 SW 9 13 5 7 1011.4 1007.6 0.0
17/09:00am 29.9 29.2 14.2 38 9.7 WNW 11 15 6 8 1011.5 1007.7 0.0
17/08:30am 29.8 28.1 14.7 39 9.4 NNW 17 26 9 14 1011.7 1007.9 0.0
17/08:00am 28.7 28.6 15.9 45 8.1 N 11 17 6 9 1011.5 1007.7 0.0
17/07:30am 28.1 28.7 15.9 47 7.7 N 7 13 4 7 1010.8 1006.9 0.0
17/07:00am 27.3 27.5 15.8 49 7.2 S 9 13 5 7 1009.7 1005.9 0.0
17/06:30am 26.1 27.0 16.6 55 6.0 WNW 7 9 4 5 1009.7 1005.9 0.0
17/06:00am 23.5 24.6 18.0 71 3.5 N 9 11 5 6 1009.3 1005.4 0.0
17/05:30am 24.8 25.6 16.4 59 5.3 NE 7 11 4 6 1008.9 1005.0 0.0
17/05:00am 25.6 26.6 16.8 58 5.6 E 7 7 4 4 1009.1 1005.2 0.0
17/04:30am 27.0 28.6 17.0 54 6.4 SW 4 9 2 5 1009.0 1005.1 0.0
17/04:00am 27.0 27.1 16.4 52 6.7 SSE 11 15 6 8 1008.7 1004.8 0.0
17/03:30am 27.6 26.3 15.8 48 7.4 S 17 20 9 11 1009.2 1005.3 0.0
17/03:00am 27.8 27.9 15.5 47 7.7 WSW 9 11 5 6 1009.6 1005.7 0.0
17/02:30am 27.5 27.8 15.9 49 7.3 ESE 9 11 5 6 1009.2 1005.3 0.0
17/02:00am 28.0 28.6 15.8 47 7.7 SW 7 9 4 5 1009.6 1005.7 0.0
17/01:30am 28.4 27.8 14.7 43 8.5 W 11 17 6 9 1009.8 1006.0 0.0
17/01:00am 28.4 28.5 15.5 45 8.1 W 9 11 5 6 1010.1 1006.2 0.0
17/12:30am 28.4 28.7 15.1 44 8.3 WNW 7 17 4 9 1010.3 1006.4 0.0
17/12:00am 28.6 28.0 14.5 42 8.7 SE 11 15 6 8 1009.8 1006.0 0.0
 
Date/Time
CST
Temp
°C
App
Temp
°C
Dew
Point
Rel
Hum
%
Delta-T
°C
Wind Press
QNH
hPa
Press
MSL
hPa
Rain
since 9 am
mm
Dir
 
Spd
km/h
Gust
km/h
Spd
kts
Gust
kts
16/11:30pm 28.7 27.3 14.5 42 8.8 SE 15 22 8 12 1010.1 1006.2 0.0
16/11:00pm 29.5 27.5 13.9 38 9.6 SE 17 26 9 14 1011.0 1007.1 0.0
16/10:30pm 29.7 28.6 14.4 39 9.5 SSE 13 19 7 10 1010.9 1007.0 0.0
16/10:00pm 29.8 24.7 14.7 39 9.4 S 35 57 19 31 1010.1 1006.2 0.0
16/09:40pm 33.4 29.8 12.0 27 13.0 SSE 22 70 12 38 1008.7 1004.8 0.0
16/09:30pm 34.0 32.2 10.7 24 13.9 SSE 11 19 6 10 1007.7 1003.8 0.0
16/09:00pm 34.2 32.8 10.8 24 14.0 SSW 9 11 5 6 1007.4 1003.5 0.0
16/08:30pm 34.8 33.4 10.8 23 14.4 SW 9 11 5 6 1007.1 1003.2 0.0
16/08:00pm 35.1 33.9 11.5 24 14.3 WSW 9 11 5 6 1006.8 1002.9 0.0
16/07:30pm 35.9 33.9 10.3 21 15.3 WSW 11 13 6 7 1006.5 1002.6 0.0
16/07:00pm 37.4 34.1 9.5 18 16.5 W 17 28 9 15 1006.3 1002.3 0.0
16/06:30pm 38.0 34.9 10.3 19 16.7 W 17 28 9 15 1006.1 1002.2 0.0
16/06:00pm 38.2 35.3 9.8 18 17.0 W 15 20 8 11 1006.3 1002.3 0.0
16/05:30pm 39.0 34.4 9.6 17 17.6 W 24 33 13 18 1006.4 1002.4 0.0
16/05:00pm 38.5 33.0 9.2 17 17.4 WSW 28 37 15 20 1006.5 1002.6 0.0

Other Formats:

Comma delimited format used in spreadsheet applications
http://www.bom.gov.au/fwo/IDD60801/IDD60801.94326.axf

JavaScript Object Notation format (JSON) in row-major order
http://www.bom.gov.au/fwo/IDD60801/IDD60801.94326.json